Time;durP1;ratioP1;P1;durP2;ratioP2;P2;SDS_P1;SDS_P2;PMS_P1;PMS_P2;Temp;Humidity;BMP_temperature;BMP_pressure;BME280_temperature;BME280_humidity;BME280_pressure;Samples;Min_cycle;Max_cycle;Signal;HPM_P1;HPM_P2
2023/01/17 00:02:29;;;;;;;25.58;19.60;;;;;;;;;;10209506;28;20084;-69
2023/01/17 00:12:46;;;;;;;25.23;19.27;;;;;;;;;;10197874;28;20077;-68
2023/01/17 00:17:44;;;;;;;27.02;21.15;;;;;;;;;;10209295;28;20070;-69
2023/01/17 01:35:40;;;;;;;6.35;5.72;;;;;;;;;;10211280;28;20069;-69
2023/01/17 01:40:44;;;;;;;7.10;6.40;;;;;;;;;;10220819;28;20073;-69
2023/01/17 01:45:45;;;;;;;7.68;6.55;;;;;;;;;;10216439;28;20072;-69
2023/01/17 01:50:43;;;;;;;11.98;5.70;;;;;;;;;;10214901;28;20450;-68
2023/01/17 01:55:44;;;;;;;5.60;5.05;;;;;;;;;;10213135;28;20073;-68
2023/01/17 02:00:43;;;;;;;5.63;4.90;;;;;;;;;;10213266;28;20076;-69
2023/01/17 02:05:42;;;;;;;5.60;5.07;;;;;;;;;;10214059;28;20069;-69
2023/01/17 02:10:42;;;;;;;6.40;5.80;;;;;;;;;;10216177;28;20079;-69
2023/01/17 02:15:45;;;;;;;5.97;5.38;;;;;;;;;;10207786;28;20080;-69
2023/01/17 02:20:55;;;;;;;5.57;5.07;;;;;;;;;;10211814;28;20073;-68
2023/01/17 02:26:04;;;;;;;5.20;4.68;;;;;;;;;;10208006;28;20073;-69
2023/01/17 02:31:06;;;;;;;7.75;5.18;;;;;;;;;;10215034;28;20096;-69
2023/01/17 02:36:09;;;;;;;5.00;4.50;;;;;;;;;;10210818;28;20112;-68
2023/01/17 02:41:09;;;;;;;5.60;5.10;;;;;;;;;;10212234;28;20101;-68
2023/01/17 02:46:09;;;;;;;6.80;5.97;;;;;;;;;;10211382;28;20076;-68
2023/01/17 02:51:19;;;;;;;6.53;5.68;;;;;;;;;;10213605;28;20073;-68
2023/01/17 02:56:23;;;;;;;8.07;7.28;;;;;;;;;;10210440;28;20534;-68
2023/01/17 03:01:28;;;;;;;5.97;5.38;;;;;;;;;;10205886;28;20495;-68
2023/01/17 03:06:30;;;;;;;5.38;4.88;;;;;;;;;;10210452;28;20065;-68
2023/01/17 03:11:28;;;;;;;5.47;4.97;;;;;;;;;;10210524;28;20076;-69
2023/01/17 03:16:31;;;;;;;6.38;5.80;;;;;;;;;;10210660;28;20123;-69
2023/01/17 03:21:29;;;;;;;4.90;4.47;;;;;;;;;;10210124;28;20065;-68
2023/01/17 03:26:27;;;;;;;6.90;5.72;;;;;;;;;;10210317;28;20074;-69
2023/01/17 03:31:26;;;;;;;6.90;5.22;;;;;;;;;;10210226;28;20094;-70
2023/01/17 03:36:25;;;;;;;6.82;5.35;;;;;;;;;;10208717;28;20533;-69
2023/01/17 03:41:23;;;;;;;4.78;4.20;;;;;;;;;;10210362;28;20498;-69
2023/01/17 03:46:22;;;;;;;4.97;4.35;;;;;;;;;;10209956;28;20510;-70
2023/01/17 03:51:21;;;;;;;5.78;5.18;;;;;;;;;;10209822;28;20065;-69
2023/01/17 03:56:20;;;;;;;11.02;8.18;;;;;;;;;;10207963;28;20080;-69
2023/01/17 04:01:18;;;;;;;7.75;5.70;;;;;;;;;;10205366;28;20498;-69
2023/01/17 04:06:17;;;;;;;6.07;5.47;;;;;;;;;;10208910;28;20061;-70
2023/01/17 04:11:15;;;;;;;4.28;3.88;;;;;;;;;;10209132;28;20072;-70
2023/01/17 04:16:15;;;;;;;6.13;5.32;;;;;;;;;;10207343;28;20073;-69
2023/01/17 04:21:14;;;;;;;6.30;5.70;;;;;;;;;;10209215;28;20076;-70
2023/01/17 04:26:12;;;;;;;5.97;5.38;;;;;;;;;;10208192;28;20147;-70
2023/01/17 04:31:13;;;;;;;11.48;8.65;;;;;;;;;;10207556;28;20077;-69
2023/01/17 04:36:13;;;;;;;19.65;15.88;;;;;;;;;;10207956;28;20064;-68
2023/01/17 04:41:12;;;;;;;6.95;6.03;;;;;;;;;;10214681;28;20065;-68
2023/01/17 04:46:11;;;;;;;7.60;6.45;;;;;;;;;;10207844;28;20037;-69
2023/01/17 04:51:09;;;;;;;8.20;5.80;;;;;;;;;;10215230;28;20080;-69
2023/01/17 04:56:09;;;;;;;12.73;10.45;;;;;;;;;;10215887;28;20101;-69
2023/01/17 05:01:08;;;;;;;7.03;6.28;;;;;;;;;;10216748;28;20074;-69
2023/01/17 05:06:06;;;;;;;7.00;5.57;;;;;;;;;;10215050;28;20072;-69
2023/01/17 05:11:06;;;;;;;5.78;4.18;;;;;;;;;;10214766;28;20065;-69
2023/01/17 05:16:05;;;;;;;4.97;4.15;;;;;;;;;;10213771;28;20076;-68
2023/01/17 05:21:04;;;;;;;5.25;4.78;;;;;;;;;;10213056;28;20077;-68
2023/01/17 05:26:05;;;;;;;4.75;4.25;;;;;;;;;;10214651;28;20085;-68
2023/01/17 05:31:03;;;;;;;5.00;3.85;;;;;;;;;;10214980;28;20507;-67
2023/01/17 05:36:03;;;;;;;4.30;3.90;;;;;;;;;;10214970;28;20069;-67
2023/01/17 05:41:03;;;;;;;5.75;5.25;;;;;;;;;;10213489;28;20061;-68
2023/01/17 05:46:02;;;;;;;8.40;6.70;;;;;;;;;;10218753;28;20073;-67
2023/01/17 05:51:00;;;;;;;8.10;6.72;;;;;;;;;;10211739;28;20069;-68
2023/01/17 05:56:00;;;;;;;10.35;8.73;;;;;;;;;;10206553;28;20081;-68
2023/01/17 06:00:58;;;;;;;11.65;8.57;;;;;;;;;;10207256;28;20069;-67
2023/01/17 06:05:56;;;;;;;9.13;7.97;;;;;;;;;;10212126;28;20080;-68
2023/01/17 06:10:54;;;;;;;11.13;7.70;;;;;;;;;;10214884;28;20069;-68
2023/01/17 06:15:56;;;;;;;22.50;14.10;;;;;;;;;;10211371;28;20645;-67
2023/01/17 06:20:55;;;;;;;38.65;23.33;;;;;;;;;;10208965;28;20083;-68
2023/01/17 06:25:53;;;;;;;9.82;8.82;;;;;;;;;;10218232;28;20088;-67
2023/01/17 06:30:51;;;;;;;8.02;5.88;;;;;;;;;;10221360;28;20074;-68
2023/01/17 06:35:51;;;;;;;5.82;5.30;;;;;;;;;;10221120;28;20135;-68
2023/01/17 06:40:49;;;;;;;4.93;4.43;;;;;;;;;;10216813;28;20065;-66
2023/01/17 06:45:47;;;;;;;4.65;4.25;;;;;;;;;;10217088;28;20092;-69
2023/01/17 06:50:48;;;;;;;7.88;5.18;;;;;;;;;;10220451;28;20450;-71
2023/01/17 06:55:48;;;;;;;8.00;7.30;;;;;;;;;;10212567;28;20100;-69
2023/01/17 07:00:46;;;;;;;24.08;15.63;;;;;;;;;;10218163;28;20510;-68
2023/01/17 07:05:44;;;;;;;116.15;75.28;;;;;;;;;;10212451;28;20069;-67
2023/01/17 07:10:44;;;;;;;57.13;40.40;;;;;;;;;;10211632;28;20065;-67
2023/01/17 07:15:43;;;;;;;69.40;46.50;;;;;;;;;;10217031;28;20074;-67
2023/01/17 07:20:42;;;;;;;43.42;30.70;;;;;;;;;;10201736;28;20073;-68
2023/01/17 07:25:44;;;;;;;35.35;22.95;;;;;;;;;;10196403;28;20164;-67
2023/01/17 07:30:42;;;;;;;16.00;12.48;;;;;;;;;;10206569;28;20077;-68
2023/01/17 07:35:41;;;;;;;11.60;8.75;;;;;;;;;;10213389;28;20508;-69
2023/01/17 07:40:40;;;;;;;17.70;14.65;;;;;;;;;;10203011;28;20069;-69
2023/01/17 07:45:40;;;;;;;39.35;33.47;;;;;;;;;;10206577;28;20097;-68
2023/01/17 07:50:39;;;;;;;26.95;19.35;;;;;;;;;;10206921;28;20609;-69
2023/01/17 07:55:38;;;;;;;28.20;17.83;;;;;;;;;;10209407;28;20529;-68
2023/01/17 08:00:37;;;;;;;16.85;11.95;;;;;;;;;;10209719;28;20096;-69
2023/01/17 08:05:35;;;;;;;45.72;33.63;;;;;;;;;;10209445;28;20077;-69
2023/01/17 08:10:33;;;;;;;28.70;19.13;;;;;;;;;;10208445;28;20470;-70
2023/01/17 08:15:33;;;;;;;13.25;8.68;;;;;;;;;;10208575;28;20477;-69
2023/01/17 08:20:33;;;;;;;21.70;16.02;;;;;;;;;;10208787;28;20482;-68
2023/01/17 08:25:31;;;;;;;15.32;10.95;;;;;;;;;;10208408;28;20443;-70
2023/01/17 08:30:30;;;;;;;8.93;7.25;;;;;;;;;;10208630;28;20076;-69
2023/01/17 08:35:31;;;;;;;19.38;10.68;;;;;;;;;;10203202;28;20077;-68
2023/01/17 08:40:33;;;;;;;6.95;5.32;;;;;;;;;;10208392;28;20059;-67
2023/01/17 08:45:31;;;;;;;6.93;5.20;;;;;;;;;;10205961;28;20061;-68
2023/01/17 08:50:31;;;;;;;6.63;5.20;;;;;;;;;;10207851;28;20057;-69
2023/01/17 08:55:29;;;;;;;7.10;5.32;;;;;;;;;;10207293;28;20077;-69
2023/01/17 09:00:28;;;;;;;6.95;5.50;;;;;;;;;;10208450;28;20209;-68
2023/01/17 09:05:27;;;;;;;5.57;4.40;;;;;;;;;;10208678;28;20082;-68
2023/01/17 09:10:26;;;;;;;7.88;4.68;;;;;;;;;;10207153;28;20073;-68
2023/01/17 09:15:24;;;;;;;5.15;4.65;;;;;;;;;;10222638;28;20087;-68
2023/01/17 09:20:23;;;;;;;8.95;7.15;;;;;;;;;;10207392;28;20077;-69
2023/01/17 09:25:21;;;;;;;12.02;9.40;;;;;;;;;;10211228;28;20065;-69
2023/01/17 09:30:22;;;;;;;16.85;6.13;;;;;;;;;;10206294;28;20077;-69
2023/01/17 09:35:20;;;;;;;14.10;8.55;;;;;;;;;;10209466;28;20084;-69
2023/01/17 09:40:20;;;;;;;10.20;7.20;;;;;;;;;;10214396;28;20057;-69
2023/01/17 09:45:19;;;;;;;7.68;5.65;;;;;;;;;;10215044;28;20084;-69
2023/01/17 09:50:27;;;;;;;12.63;7.65;;;;;;;;;;10215607;28;20074;-70
2023/01/17 09:55:25;;;;;;;7.80;5.47;;;;;;;;;;10213563;28;20172;-70
2023/01/17 10:00:32;;;;;;;4.65;3.60;;;;;;;;;;10214176;28;20072;-68
2023/01/17 10:05:46;;;;;;;4.25;3.63;;;;;;;;;;10229316;28;20042;-69
2023/01/17 10:10:49;;;;;;;8.10;3.83;;;;;;;;;;10215126;28;20492;-68
2023/01/17 10:15:53;;;;;;;6.22;4.20;;;;;;;;;;10222879;28;20076;-70
2023/01/17 10:20:54;;;;;;;6.03;3.37;;;;;;;;;;10212362;28;20062;-68
2023/01/17 10:25:54;;;;;;;6.05;3.45;;;;;;;;;;10209904;28;20507;-69
2023/01/17 10:30:54;;;;;;;4.25;3.65;;;;;;;;;;10217383;28;20492;-69
2023/01/17 10:35:55;;;;;;;4.75;3.25;;;;;;;;;;10210239;28;20088;-69
2023/01/17 10:40:57;;;;;;;5.78;3.45;;;;;;;;;;10212818;28;20057;-70
2023/01/17 10:45:56;;;;;;;7.38;4.22;;;;;;;;;;10211983;28;20629;-70
2023/01/17 10:50:59;;;;;;;4.22;3.30;;;;;;;;;;10210868;28;20073;-69
2023/01/17 10:55:58;;;;;;;3.40;3.10;;;;;;;;;;10210895;28;20077;-69
2023/01/17 11:00:58;;;;;;;6.43;3.88;;;;;;;;;;10211351;28;20061;-69
2023/01/17 11:06:17;;;;;;;6.05;3.08;;;;;;;;;;10212352;28;20077;-69
2023/01/17 11:11:16;;;;;;;8.63;6.38;;;;;;;;;;10210380;28;20061;-69
2023/01/17 11:16:18;;;;;;;4.88;2.83;;;;;;;;;;10210984;28;20080;-70
2023/01/17 11:21:22;;;;;;;7.30;3.63;;;;;;;;;;10211430;28;20069;-69
2023/01/17 11:26:23;;;;;;;5.72;3.17;;;;;;;;;;10210174;28;20498;-69
2023/01/17 11:31:25;;;;;;;6.72;4.35;;;;;;;;;;10211049;28;20089;-69
2023/01/17 11:36:27;;;;;;;15.43;9.50;;;;;;;;;;10209358;28;20092;-69
2023/01/17 11:41:26;;;;;;;7.20;5.50;;;;;;;;;;10209492;28;20065;-68
2023/01/17 11:46:27;;;;;;;4.00;3.22;;;;;;;;;;10211036;28;20069;-68
2023/01/17 11:51:27;;;;;;;2.85;2.33;;;;;;;;;;10211641;28;20057;-68
2023/01/17 11:56:29;;;;;;;6.68;2.97;;;;;;;;;;10203986;28;20504;-69
2023/01/17 12:01:32;;;;;;;13.10;8.88;;;;;;;;;;10210471;28;20073;-69
2023/01/17 12:06:38;;;;;;;6.15;4.43;;;;;;;;;;10210039;28;20068;-69
2023/01/17 12:17:19;;;;;;;5.20;3.60;;;;;;;;;;10207986;28;20077;-69
2023/01/17 12:22:22;;;;;;;4.47;3.45;;;;;;;;;;10210425;28;20471;-68
2023/01/17 12:27:24;;;;;;;3.17;2.53;;;;;;;;;;10204471;28;20072;-69
2023/01/17 12:32:30;;;;;;;6.40;3.88;;;;;;;;;;10204598;28;20077;-68
2023/01/17 12:37:33;;;;;;;7.22;4.80;;;;;;;;;;10208918;28;20081;-68
2023/01/17 12:42:34;;;;;;;4.32;3.65;;;;;;;;;;10207460;28;20073;-68
2023/01/17 12:47:35;;;;;;;4.60;2.47;;;;;;;;;;10206436;28;20065;-68
2023/01/17 12:52:42;;;;;;;8.93;3.97;;;;;;;;;;10208099;28;20073;-68
2023/01/17 12:57:41;;;;;;;6.60;3.47;;;;;;;;;;10210577;28;20501;-68
2023/01/17 13:02:44;;;;;;;4.80;2.50;;;;;;;;;;10208007;28;20072;-69
2023/01/17 13:07:47;;;;;;;4.72;2.72;;;;;;;;;;10211335;28;20084;-69
2023/01/17 13:12:46;;;;;;;7.70;3.28;;;;;;;;;;10209752;28;20084;-69
2023/01/17 13:17:47;;;;;;;4.75;3.15;;;;;;;;;;10216134;28;20553;-69
2023/01/17 13:22:47;;;;;;;4.32;3.42;;;;;;;;;;10213991;28;20092;-68
2023/01/17 13:28:03;;;;;;;3.05;2.67;;;;;;;;;;10214550;28;20542;-69
2023/01/17 13:33:07;;;;;;;7.90;2.85;;;;;;;;;;10214575;28;20081;-68
2023/01/17 13:38:13;;;;;;;15.43;7.73;;;;;;;;;;10213721;28;20077;-68
2023/01/17 13:43:13;;;;;;;22.02;10.57;;;;;;;;;;10216044;28;20157;-67
2023/01/17 13:48:31;;;;;;;14.20;9.77;;;;;;;;;;10208552;28;20081;-70
2023/01/17 13:53:44;;;;;;;12.82;8.77;;;;;;;;;;10207621;28;20159;-68
2023/01/17 13:59:02;;;;;;;21.13;14.90;;;;;;;;;;10209957;28;20486;-68
2023/01/17 14:04:06;;;;;;;16.52;10.75;;;;;;;;;;10212964;28;20068;-68
2023/01/17 14:09:09;;;;;;;77.40;43.57;;;;;;;;;;10214129;28;20069;-69
2023/01/17 14:14:25;;;;;;;37.25;24.58;;;;;;;;;;10213124;28;20077;-70
2023/01/17 14:19:26;;;;;;;20.80;14.77;;;;;;;;;;10206009;28;20085;-68
2023/01/17 14:24:24;;;;;;;39.92;23.02;;;;;;;;;;10209587;28;20077;-68
2023/01/17 14:29:57;;;;;;;12.30;8.50;;;;;;;;;;10212846;28;20458;-68
2023/01/17 14:34:57;;;;;;;38.35;22.25;;;;;;;;;;10213679;28;20471;-67
2023/01/17 14:39:55;;;;;;;12.48;8.93;;;;;;;;;;10211593;28;20076;-69
2023/01/17 14:44:57;;;;;;;11.85;5.30;;;;;;;;;;10210723;28;20069;-69
2023/01/17 14:50:10;;;;;;;9.13;7.60;;;;;;;;;;10212772;28;20076;-69
2023/01/17 14:55:14;;;;;;;17.92;12.68;;;;;;;;;;10210715;28;20069;-69
2023/01/17 15:00:17;;;;;;;10.75;6.43;;;;;;;;;;10207992;28;20178;-69
2023/01/17 15:05:18;;;;;;;13.63;9.85;;;;;;;;;;10211646;28;20069;-70
2023/01/17 15:10:18;;;;;;;16.65;14.73;;;;;;;;;;10214333;28;20054;-68
2023/01/17 15:15:26;;;;;;;31.50;23.85;;;;;;;;;;10210991;28;20071;-67
2023/01/17 15:20:26;;;;;;;33.30;21.90;;;;;;;;;;10205769;28;20084;-66
2023/01/17 15:25:24;;;;;;;18.90;14.20;;;;;;;;;;10211088;28;20079;-66
2023/01/17 15:30:24;;;;;;;15.18;9.63;;;;;;;;;;10210866;28;20092;-67
2023/01/17 15:35:22;;;;;;;9.07;7.15;;;;;;;;;;10212376;28;20079;-67
2023/01/17 15:40:22;;;;;;;13.40;6.70;;;;;;;;;;10211475;28;20073;-68
2023/01/17 15:45:23;;;;;;;8.77;6.60;;;;;;;;;;10214970;28;20074;-67
2023/01/17 15:50:30;;;;;;;20.20;12.25;;;;;;;;;;10212547;28;20084;-67
2023/01/17 15:55:32;;;;;;;10.00;8.20;;;;;;;;;;10216386;28;20061;-67
2023/01/17 16:00:36;;;;;;;14.93;11.30;;;;;;;;;;10209113;28;20080;-67
2023/01/17 16:05:42;;;;;;;11.38;8.48;;;;;;;;;;10208142;28;20066;-66
2023/01/17 16:10:42;;;;;;;15.18;8.40;;;;;;;;;;10209920;28;20103;-66
2023/01/17 16:15:41;;;;;;;9.77;6.25;;;;;;;;;;10204476;28;20065;-68
2023/01/17 16:20:41;;;;;;;5.47;4.15;;;;;;;;;;10216279;28;20069;-68
2023/01/17 16:25:39;;;;;;;8.50;3.80;;;;;;;;;;10212199;28;20120;-68
2023/01/17 16:30:39;;;;;;;20.30;18.10;;;;;;;;;;10206712;28;20100;-67
2023/01/17 16:35:38;;;;;;;12.02;5.80;;;;;;;;;;10207135;28;20111;-67
2023/01/17 16:40:39;;;;;;;11.48;8.82;;;;;;;;;;10208704;28;20080;-67
2023/01/17 16:45:40;;;;;;;17.05;11.38;;;;;;;;;;10214428;28;20065;-67
2023/01/17 16:50:40;;;;;;;28.10;19.77;;;;;;;;;;10214953;28;20075;-68
2023/01/17 16:55:40;;;;;;;12.85;10.65;;;;;;;;;;10217031;28;20058;-68
2023/01/17 17:00:41;;;;;;;12.27;10.73;;;;;;;;;;10215490;28;20065;-67
2023/01/17 17:05:39;;;;;;;17.92;11.73;;;;;;;;;;10215592;28;20434;-68
2023/01/17 17:10:37;;;;;;;18.08;12.48;;;;;;;;;;10213295;28;20072;-67
2023/01/17 17:15:40;;;;;;;7.53;5.68;;;;;;;;;;10217794;28;20065;-67
2023/01/17 17:20:39;;;;;;;8.25;6.20;;;;;;;;;;10214650;28;20081;-66
2023/01/17 17:25:39;;;;;;;7.30;5.38;;;;;;;;;;10220541;28;20446;-68
2023/01/17 17:30:38;;;;;;;10.85;7.78;;;;;;;;;;10213363;28;20077;-68
2023/01/17 17:35:36;;;;;;;9.13;6.03;;;;;;;;;;10213758;28;20506;-67
2023/01/17 17:40:36;;;;;;;10.73;8.75;;;;;;;;;;10219089;28;20882;-66
2023/01/17 17:45:34;;;;;;;10.43;5.60;;;;;;;;;;10219403;28;20065;-68
2023/01/17 17:50:32;;;;;;;9.20;5.93;;;;;;;;;;10223099;28;20077;-68
2023/01/17 17:55:30;;;;;;;10.82;5.72;;;;;;;;;;10208950;28;20069;-63
2023/01/17 18:00:30;;;;;;;8.77;6.28;;;;;;;;;;10209454;28;20069;-65
2023/01/17 18:05:29;;;;;;;7.93;6.20;;;;;;;;;;10210983;28;20112;-66
2023/01/17 18:10:28;;;;;;;12.85;6.40;;;;;;;;;;10210386;28;20077;-65
2023/01/17 18:15:26;;;;;;;9.15;5.53;;;;;;;;;;10212366;28;20080;-66
2023/01/17 18:20:26;;;;;;;5.45;4.00;;;;;;;;;;10207051;28;20077;-64
2023/01/17 18:25:24;;;;;;;5.85;3.40;;;;;;;;;;10207833;28;20062;-65
2023/01/17 18:30:23;;;;;;;7.72;4.43;;;;;;;;;;10212593;28;20077;-64
2023/01/17 18:35:21;;;;;;;5.85;3.78;;;;;;;;;;10213646;28;20062;-64
2023/01/17 18:40:21;;;;;;;5.60;3.72;;;;;;;;;;10207561;28;20073;-64
2023/01/17 18:45:19;;;;;;;7.35;3.80;;;;;;;;;;10213226;28;20049;-64
2023/01/17 18:50:17;;;;;;;8.23;5.90;;;;;;;;;;10214919;28;20154;-64
2023/01/17 18:55:16;;;;;;;12.63;6.40;;;;;;;;;;10211484;28;20080;-64
2023/01/17 19:00:18;;;;;;;13.40;9.35;;;;;;;;;;10210927;28;20089;-65
2023/01/17 19:05:20;;;;;;;14.20;8.15;;;;;;;;;;10210259;28;20128;-65
2023/01/17 19:10:19;;;;;;;11.13;7.68;;;;;;;;;;10212285;28;20069;-64
2023/01/17 19:15:18;;;;;;;8.15;3.85;;;;;;;;;;10210463;28;20092;-65
2023/01/17 19:20:17;;;;;;;15.85;11.15;;;;;;;;;;10210742;28;20501;-64
2023/01/17 19:25:16;;;;;;;7.78;4.90;;;;;;;;;;10211948;28;20100;-64
2023/01/17 19:30:14;;;;;;;12.57;8.07;;;;;;;;;;10210668;28;20112;-63
2023/01/17 19:35:14;;;;;;;17.40;11.85;;;;;;;;;;10206778;28;20455;-64
2023/01/17 19:40:13;;;;;;;16.35;9.80;;;;;;;;;;10211530;28;20088;-64
2023/01/17 19:45:13;;;;;;;7.93;5.13;;;;;;;;;;10205760;28;20076;-64
2023/01/17 19:50:11;;;;;;;8.18;4.75;;;;;;;;;;10209479;28;20073;-64
2023/01/17 19:55:11;;;;;;;9.15;4.18;;;;;;;;;;10209437;28;20073;-64
2023/01/17 20:00:12;;;;;;;7.38;4.00;;;;;;;;;;10211156;28;20069;-64
2023/01/17 20:05:10;;;;;;;5.28;2.80;;;;;;;;;;10209364;28;20110;-64
2023/01/17 20:10:09;;;;;;;6.43;3.53;;;;;;;;;;10209017;28;20072;-64
2023/01/17 20:15:09;;;;;;;10.38;5.35;;;;;;;;;;10209382;28;20073;-64
2023/01/17 20:20:11;;;;;;;6.40;3.03;;;;;;;;;;10207058;28;20086;-64
2023/01/17 20:25:10;;;;;;;7.25;4.50;;;;;;;;;;10209453;28;20481;-65
2023/01/17 20:30:11;;;;;;;9.63;8.15;;;;;;;;;;10208361;28;20495;-65
2023/01/17 20:35:17;;;;;;;13.63;8.25;;;;;;;;;;10209784;28;20093;-64
2023/01/17 20:40:16;;;;;;;8.07;5.05;;;;;;;;;;10203859;28;20077;-64
2023/01/17 20:45:16;;;;;;;6.97;3.10;;;;;;;;;;10211751;28;20065;-65
2023/01/17 20:50:14;;;;;;;6.18;3.15;;;;;;;;;;10209014;28;20057;-65
2023/01/17 20:55:13;;;;;;;13.60;4.70;;;;;;;;;;10214398;28;20089;-65
2023/01/17 21:00:11;;;;;;;11.07;5.70;;;;;;;;;;10207629;28;20498;-64
2023/01/17 21:05:11;;;;;;;7.82;3.53;;;;;;;;;;10205817;28;20073;-64
2023/01/17 21:10:10;;;;;;;7.25;3.97;;;;;;;;;;10208141;28;20069;-64
2023/01/17 21:15:09;;;;;;;7.13;4.60;;;;;;;;;;10213624;28;20509;-63
2023/01/17 21:20:09;;;;;;;5.93;4.40;;;;;;;;;;10210583;28;20078;-64
2023/01/17 21:25:09;;;;;;;7.35;3.92;;;;;;;;;;10205692;28;20069;-65
2023/01/17 21:30:08;;;;;;;8.57;5.88;;;;;;;;;;10213889;28;20465;-64
2023/01/17 21:35:07;;;;;;;8.68;5.22;;;;;;;;;;10215399;28;20081;-65
2023/01/17 21:40:07;;;;;;;42.45;24.90;;;;;;;;;;10217319;28;20080;-64
2023/01/17 21:45:08;;;;;;;61.53;41.28;;;;;;;;;;10214608;28;20081;-64
2023/01/17 21:50:06;;;;;;;10.05;5.63;;;;;;;;;;10216863;28;20080;-64
2023/01/17 22:00:23;;;;;;;12.60;6.22;;;;;;;;;;10213409;28;20451;-64
2023/01/17 22:05:23;;;;;;;26.40;13.98;;;;;;;;;;10213184;28;20091;-64
2023/01/17 22:10:22;;;;;;;21.55;14.15;;;;;;;;;;10218961;28;20064;-64
2023/01/17 22:15:20;;;;;;;12.00;7.50;;;;;;;;;;10211758;28;20528;-64
2023/01/17 22:20:20;;;;;;;16.80;9.25;;;;;;;;;;10211599;28;20073;-63
2023/01/17 22:25:18;;;;;;;20.63;8.95;;;;;;;;;;10214173;28;20069;-64
2023/01/17 22:30:18;;;;;;;29.63;19.13;;;;;;;;;;10210155;28;20089;-65
2023/01/17 22:35:16;;;;;;;14.73;9.38;;;;;;;;;;10212188;28;20077;-64
2023/01/17 22:40:16;;;;;;;19.35;9.80;;;;;;;;;;10210703;28;20081;-64
2023/01/17 22:45:16;;;;;;;27.23;14.40;;;;;;;;;;10208041;28;20061;-64
2023/01/17 22:50:14;;;;;;;12.98;6.43;;;;;;;;;;10208746;28;20069;-64
2023/01/17 22:55:12;;;;;;;12.02;6.53;;;;;;;;;;10220950;28;20085;-65
2023/01/17 23:00:14;;;;;;;18.63;11.80;;;;;;;;;;10208036;28;20070;-65
2023/01/17 23:05:12;;;;;;;11.07;5.63;;;;;;;;;;10210902;28;20092;-65
2023/01/17 23:10:11;;;;;;;5.63;3.55;;;;;;;;;;10213515;28;20064;-64
2023/01/17 23:20:26;;;;;;;6.15;4.32;;;;;;;;;;10211201;28;20506;-64
2023/01/17 23:25:25;;;;;;;7.22;2.55;;;;;;;;;;10212990;28;20073;-64
2023/01/17 23:30:24;;;;;;;7.93;2.83;;;;;;;;;;10210639;28;20069;-64
2023/01/17 23:35:23;;;;;;;4.82;2.63;;;;;;;;;;10220095;28;20076;-65
2023/01/17 23:40:23;;;;;;;2.95;2.15;;;;;;;;;;10212373;28;20077;-64
2023/01/17 23:45:21;;;;;;;9.73;3.78;;;;;;;;;;10211968;28;20076;-63
2023/01/17 23:50:19;;;;;;;5.47;3.20;;;;;;;;;;10209513;28;20072;-64
2023/01/17 23:55:18;;;;;;;4.00;2.60;;;;;;;;;;10209092;28;20081;-63
